Time;durP1;ratioP1;P1;durP2;ratioP2;P2;SDS_P1;SDS_P2;PMS_P1;PMS_P2;Temp;Humidity;BMP_temperature;BMP_pressure;BME280_temperature;BME280_humidity;BME280_pressure;Samples;Min_cycle;Max_cycle;Signal;HPM_P1;HPM_P2
2022/03/10 00:00:18;;;;;;;;;50.25;37.75;;;;;9.56;59.54;101798.56;5014805;28;45328;-71
2022/03/10 00:02:43;;;;;;;;;41.75;34.00;;;;;9.53;59.83;101807.34;5013923;28;45437;-71
2022/03/10 00:05:11;;;;;;;;;44.50;36.00;;;;;9.50;59.71;101809.16;5014380;28;45551;-71
2022/03/10 00:07:36;;;;;;;;;46.00;31.75;;;;;9.44;59.83;101802.28;5011346;28;45490;-71
2022/03/10 00:10:03;;;;;;;;;43.25;32.25;;;;;9.40;60.03;101809.38;5012804;28;45511;-71
2022/03/10 00:12:28;;;;;;;;;35.75;27.50;;;;;9.35;60.44;101805.97;5010593;28;45376;-71
2022/03/10 00:14:54;;;;;;;;;40.25;33.75;;;;;9.33;60.38;101809.50;5010300;28;45560;-71
2022/03/10 00:17:19;;;;;;;;;47.00;36.50;;;;;9.30;60.51;101807.84;5009824;28;45242;-71
2022/03/10 00:19:44;;;;;;;;;45.75;34.00;;;;;9.28;60.60;101798.25;5011113;28;45354;-71
2022/03/10 00:22:11;;;;;;;;;45.00;36.00;;;;;9.25;60.93;101798.34;5014350;28;45559;-71
2022/03/10 00:24:38;;;;;;;;;38.50;32.75;;;;;9.21;60.76;101799.28;5012484;28;45588;-71
2022/03/10 00:27:04;;;;;;;;;46.00;35.50;;;;;9.19;60.88;101801.06;5009531;28;46036;-71
2022/03/10 00:29:29;;;;;;;;;43.50;29.50;;;;;9.15;61.27;101801.13;5012306;28;45372;-71
2022/03/10 00:31:55;;;;;;;;;35.75;29.75;;;;;9.13;61.22;101802.94;5009761;28;45381;-71
2022/03/10 00:34:20;;;;;;;;;45.75;34.50;;;;;9.11;61.43;101809.09;4995683;28;45471;-71
2022/03/10 00:36:45;;;;;;;;;41.50;34.50;;;;;9.08;61.44;101803.91;5010419;28;45297;-71
2022/03/10 00:39:11;;;;;;;;;35.50;31.25;;;;;9.05;61.30;101807.44;5009777;28;45592;-71
2022/03/10 00:41:36;;;;;;;;;36.25;34.50;;;;;9.04;61.90;101813.59;5009708;28;45732;-71
2022/03/10 00:44:01;;;;;;;;;36.25;30.00;;;;;9.01;61.25;101805.78;5009012;28;45341;-71
2022/03/10 00:46:27;;;;;;;;;34.00;27.25;;;;;8.99;61.67;101812.81;5012230;28;45379;-71
2022/03/10 00:48:52;;;;;;;;;36.75;30.50;;;;;8.96;62.11;101809.38;5011348;28;45522;-71
2022/03/10 00:51:18;;;;;;;;;37.25;30.25;;;;;8.93;62.38;101812.94;5009556;28;45444;-71
2022/03/10 00:53:44;;;;;;;;;44.75;36.75;;;;;8.91;62.29;101811.22;5012298;28;45326;-71
2022/03/10 00:56:09;;;;;;;;;41.50;34.25;;;;;8.88;62.54;101812.16;5009122;28;46932;-71
2022/03/10 00:58:35;;;;;;;;;35.00;33.75;;;;;8.86;62.73;101806.06;5010986;28;45600;-71
2022/03/10 01:01:00;;;;;;;;;35.75;34.00;;;;;8.85;62.99;101804.34;5013472;28;52527;-71
2022/03/10 01:03:25;;;;;;;;;40.25;35.00;;;;;8.83;62.82;101800.91;5009814;28;45651;-71
2022/03/10 01:05:51;;;;;;;;;44.75;38.75;;;;;8.78;63.22;101806.22;5009020;28;46133;-71
2022/03/10 01:08:17;;;;;;;;;41.75;34.75;;;;;8.78;63.33;101813.22;5009265;28;45537;-71
2022/03/10 01:10:42;;;;;;;;;42.50;34.75;;;;;8.75;62.98;101805.41;5010011;28;45409;-71
2022/03/10 01:13:15;;;;;;;;;38.50;33.00;;;;;8.74;63.44;101814.16;5025368;28;45475;-71
2022/03/10 01:15:41;;;;;;;;;43.25;30.75;;;;;8.69;63.28;101814.25;5011772;28;46218;-71
2022/03/10 01:18:07;;;;;;;;;37.75;31.50;;;;;8.68;63.25;101811.66;5012891;28;45434;-72
2022/03/10 01:20:33;;;;;;;;;40.25;32.25;;;;;8.62;62.98;101817.88;5012268;28;45467;-71
2022/03/10 01:22:58;;;;;;;;;44.75;31.75;;;;;8.55;63.71;101811.84;5014439;28;55927;-71
2022/03/10 01:25:23;;;;;;;;;38.00;31.67;;;;;8.56;63.60;101815.34;5015627;28;48644;-71
2022/03/10 01:27:49;;;;;;;;;40.50;33.25;;;;;8.54;63.29;101820.63;5014249;28;45381;-71
2022/03/10 01:30:14;;;;;;;;;44.00;36.25;;;;;8.50;63.65;101810.22;5013083;28;45487;-71
2022/03/10 01:32:40;;;;;;;;;50.50;36.25;;;;;8.47;63.67;101805.91;5012370;28;45644;-71
2022/03/10 01:35:06;;;;;;;;;47.25;32.75;;;;;8.46;63.35;101805.94;5011654;28;45954;-71
2022/03/10 01:37:37;;;;;;;;;40.25;32.50;;;;;8.43;63.79;101795.50;5014480;28;45479;-71
2022/03/10 01:40:08;;;;;;;;;40.75;34.25;;;;;8.44;63.23;101803.31;5015610;28;47049;-71
2022/03/10 01:42:33;;;;;;;;;40.25;33.00;;;;;8.46;63.33;101803.31;5012867;28;45400;-71
2022/03/10 01:44:59;;;;;;;;;44.75;35.00;;;;;8.44;63.62;101808.56;5012010;28;45448;-71
2022/03/10 01:47:25;;;;;;;;;41.00;34.25;;;;;8.41;63.37;101800.78;5012199;28;45409;-71
2022/03/10 01:49:50;;;;;;;;;38.25;34.25;;;;;8.41;63.77;101805.16;5012119;28;45486;-71
2022/03/10 01:52:18;;;;;;;;;38.00;31.25;;;;;8.39;63.72;101799.91;5015990;28;45446;-71
2022/03/10 01:54:43;;;;;;;;;38.25;32.25;;;;;8.40;63.46;101803.41;5016066;28;46135;-71
2022/03/10 01:57:10;;;;;;;;;33.25;29.50;;;;;8.38;63.42;101808.66;5011800;28;45454;-71
2022/03/10 01:59:38;;;;;;;;;44.00;28.25;;;;;8.34;63.73;101805.19;5016516;28;45369;-71
2022/03/10 02:02:04;;;;;;;;;31.25;26.25;;;;;8.33;63.57;101802.59;5011954;28;45534;-71
2022/03/10 02:04:29;;;;;;;;;23.00;21.00;;;;;8.32;63.19;101804.38;5013795;28;47531;-71
2022/03/10 02:06:55;;;;;;;;;40.75;29.75;;;;;8.31;62.97;101800.03;5014069;28;45431;-71
2022/03/10 02:12:05;;;;;;;;;40.50;34.50;;;;;8.32;62.90;101798.28;5015677;28;45509;-71
2022/03/10 02:17:20;;;;;;;;;37.00;30.75;;;;;8.29;62.86;101790.44;5011778;28;45858;-71
2022/03/10 02:19:51;;;;;;;;;40.00;29.75;;;;;8.27;62.57;101793.09;5011756;28;45328;-71
2022/03/10 02:22:18;;;;;;;;;28.50;26.50;;;;;8.25;63.40;101792.28;5000437;28;45493;-71
2022/03/10 02:24:44;;;;;;;;;33.00;27.00;;;;;8.25;63.40;101794.91;5014737;28;45515;-71
2022/03/10 02:27:26;;;;;;;;;38.50;30.50;;;;;8.24;63.20;101789.66;5010598;28;46140;-71
2022/03/10 02:29:58;;;;;;;;;30.50;24.00;;;;;8.21;62.97;101790.59;5011191;28;45478;-71
2022/03/10 02:32:23;;;;;;;;;40.50;32.00;;;;;8.19;63.53;101788.88;5010911;28;45378;-71
2022/03/10 02:34:49;;;;;;;;;36.00;28.75;;;;;8.16;63.27;101788.94;5011020;28;45290;-71
2022/03/10 02:37:16;;;;;;;;;45.00;34.25;;;;;8.14;63.09;101790.69;5015784;28;45910;-71
2022/03/10 02:39:43;;;;;;;;;35.25;27.25;;;;;8.10;63.38;101792.53;5012856;28;45452;-71
2022/03/10 02:42:09;;;;;;;;;36.00;32.50;;;;;8.09;63.18;101796.00;5011531;28;45538;-71
2022/03/10 02:44:48;;;;;;;;;38.25;30.75;;;;;8.05;62.86;101796.97;5010731;28;46110;-71
2022/03/10 02:47:15;;;;;;;;;35.00;26.75;;;;;8.04;63.17;101801.34;5010820;28;45528;-71
2022/03/10 02:49:41;;;;;;;;;28.50;27.00;;;;;8.02;63.02;101797.84;5012308;28;45544;-71
2022/03/10 02:52:07;;;;;;;;;35.75;29.50;;;;;8.02;63.01;101800.47;5015350;28;45409;-71
2022/03/10 02:54:32;;;;;;;;;32.75;27.00;;;;;8.00;63.01;101799.66;5015541;28;45453;-71
2022/03/10 02:56:58;;;;;;;;;35.25;24.50;;;;;7.98;62.83;101804.03;5010953;28;45365;-71
2022/03/10 02:59:24;;;;;;;;;38.25;31.00;;;;;7.96;62.51;101805.81;5015276;28;45542;-71
2022/03/10 03:01:49;;;;;;;;;33.50;29.00;;;;;7.93;62.74;101803.22;5010573;28;45542;-71
2022/03/10 03:04:15;;;;;;;;;31.50;26.00;;;;;7.92;62.52;101801.50;5016008;28;47001;-71
2022/03/10 03:06:40;;;;;;;;;30.00;25.00;;;;;7.92;62.60;101801.50;5011874;28;45503;-71
2022/03/10 03:09:06;;;;;;;;;32.00;28.25;;;;;7.93;62.49;101805.84;5011174;28;45435;-71
2022/03/10 03:11:31;;;;;;;;;29.75;27.50;;;;;7.91;62.87;101801.53;5011108;28;45458;-71
2022/03/10 03:13:56;;;;;;;;;34.00;27.00;;;;;7.92;62.76;101805.88;5012770;28;53407;-71
2022/03/10 03:16:24;;;;;;;;;39.00;27.25;;;;;7.94;62.63;101807.59;5013542;28;47164;-71
2022/03/10 03:18:50;;;;;;;;;37.00;28.00;;;;;7.99;61.88;101810.16;5012565;28;45246;-71
2022/03/10 03:21:15;;;;;;;;;30.50;27.00;;;;;8.00;62.17;101810.13;5011158;28;45234;-71
2022/03/10 03:23:40;;;;;;;;;31.33;29.00;;;;;8.01;62.32;101814.47;5013713;28;51158;-71
2022/03/10 03:26:05;;;;;;;;;32.25;28.25;;;;;8.02;62.08;101808.31;5007028;28;45808;-71
2022/03/10 03:28:31;;;;;;;;;36.33;26.33;;;;;8.06;62.01;101817.00;5014200;28;51674;-71
2022/03/10 03:30:56;;;;;;;;;31.50;28.50;;;;;8.06;62.62;101812.63;5014665;28;45242;-71
2022/03/10 03:33:21;;;;;;;;;27.33;22.33;;;;;8.05;62.22;101817.91;5010903;28;45336;-71
2022/03/10 03:35:47;;;;;;;;;15.33;8.00;;;;;8.04;62.15;101817.03;5010607;28;45420;-71
2022/03/10 03:38:13;;;;;;;;;31.50;24.00;;;;;8.02;62.23;101816.19;5009851;28;45445;-71
2022/03/10 03:40:38;;;;;;;;;28.00;24.50;;;;;8.01;62.48;101824.06;5012306;28;45526;-71
2022/03/10 03:43:03;;;;;;;;;30.50;22.75;;;;;7.96;62.26;101820.66;5013357;28;46975;-71
2022/03/10 03:45:29;;;;;;;;;29.75;24.50;;;;;7.93;62.53;101824.16;5010402;28;45773;-72
2022/03/10 03:47:55;;;;;;;;;30.75;26.00;;;;;7.91;62.54;101823.34;5013213;28;45840;-71
2022/03/10 03:50:21;;;;;;;;;31.00;26.25;;;;;7.91;62.52;101825.94;5010279;28;45562;-71
2022/03/10 03:52:46;;;;;;;;;27.75;26.50;;;;;7.88;62.50;101823.38;5013573;28;45897;-71
2022/03/10 03:55:12;;;;;;;;;35.00;26.75;;;;;7.86;62.75;101825.16;5014527;28;45468;-71
2022/03/10 03:57:38;;;;;;;;;38.25;26.75;;;;;7.84;62.58;101829.56;5010701;28;45401;-71
2022/03/10 04:00:06;;;;;;;;;33.75;27.25;;;;;7.85;62.53;101823.44;5010547;28;45570;-71
2022/03/10 04:02:31;;;;;;;;;29.25;22.75;;;;;7.85;62.54;101823.44;5009411;28;45621;-71
2022/03/10 04:04:56;;;;;;;;;30.00;25.67;;;;;7.82;62.75;101826.06;5009112;28;53155;-71
2022/03/10 04:07:22;;;;;;;;;35.50;26.50;;;;;7.82;62.32;101832.16;5013804;28;45613;-71
2022/03/10 04:09:48;;;;;;;;;35.25;29.25;;;;;7.81;62.42;101832.19;5014487;28;45456;-71
2022/03/10 04:12:13;;;;;;;;;36.50;29.50;;;;;7.80;62.42;101831.34;5009979;28;46308;-71
2022/03/10 04:14:39;;;;;;;;;32.33;26.33;;;;;7.80;62.73;101828.72;5012946;28;47310;-71
2022/03/10 04:17:04;;;;;;;;;34.25;24.50;;;;;7.80;62.59;101831.34;5013622;28;45367;-71
2022/03/10 04:19:29;;;;;;;;;32.00;24.50;;;;;7.80;62.75;101841.81;5011910;28;45724;-71
2022/03/10 04:21:55;;;;;;;;;33.25;26.50;;;;;7.79;62.51;101840.09;5011667;28;45896;-71
2022/03/10 04:24:20;;;;;;;;;33.75;27.50;;;;;7.78;62.63;101840.13;4996025;28;45620;-71
2022/03/10 04:26:45;;;;;;;;;32.75;24.75;;;;;7.78;62.57;101840.13;5010205;28;49319;-71
2022/03/10 04:29:11;;;;;;;;;30.75;25.50;;;;;7.76;62.82;101850.56;5022092;28;45375;-71
2022/03/10 04:31:37;;;;;;;;;30.00;22.75;;;;;7.74;62.73;101843.66;5010964;28;47338;-71
2022/03/10 04:34:04;;;;;;;;;35.00;26.00;;;;;7.71;62.69;101835.81;5014268;28;45411;-71
2022/03/10 04:36:29;;;;;;;;;36.50;25.00;;;;;7.68;63.10;101838.50;5010044;28;45401;-71
2022/03/10 04:38:54;;;;;;;;;34.50;24.00;;;;;7.64;63.20;101842.03;5012423;28;45442;-71
2022/03/10 04:41:20;;;;;;;;;34.75;22.75;;;;;7.60;63.10;101849.06;5009369;28;46007;-71
2022/03/10 04:43:45;;;;;;;;;28.00;21.50;;;;;7.55;63.33;101843.00;5009047;28;45475;-71
2022/03/10 04:46:10;;;;;;;;;27.75;23.50;;;;;7.51;63.73;101847.41;5013154;28;45456;-71
2022/03/10 04:48:36;;;;;;;;;33.00;24.75;;;;;7.49;63.98;101846.56;5010143;28;47238;-71
2022/03/10 04:51:02;;;;;;;;;37.00;27.25;;;;;7.45;64.00;101850.09;5010894;28;46052;-71
2022/03/10 04:53:27;;;;;;;;;41.50;26.50;;;;;7.42;64.40;101849.28;5016279;28;45700;-71
2022/03/10 04:55:52;;;;;;;;;34.25;25.50;;;;;7.38;64.50;101845.84;5012466;28;45487;-71
2022/03/10 04:58:18;;;;;;;;;33.25;26.00;;;;;7.36;64.57;101847.63;5016903;28;45440;-71
2022/03/10 05:00:43;;;;;;;;;29.50;23.25;;;;;7.33;64.51;101848.50;5013349;28;45427;-71
2022/03/10 05:03:09;;;;;;;;;36.00;27.25;;;;;7.31;64.29;101852.03;5016308;28;45458;-71
2022/03/10 05:05:34;;;;;;;;;28.00;26.75;;;;;7.28;64.36;101850.31;5013000;28;45531;-71
2022/03/10 05:08:00;;;;;;;;;30.75;23.50;;;;;7.25;64.70;101847.72;5015443;28;45594;-71
2022/03/10 05:10:25;;;;;;;;;40.50;32.25;;;;;7.25;64.35;101846.84;5015415;28;45418;-71
2022/03/10 05:12:53;;;;;;;;;38.50;27.75;;;;;7.23;64.29;101846.03;5013344;28;45389;-71
2022/03/10 05:15:26;;;;;;;;;43.25;32.75;;;;;7.20;64.52;101848.66;5015855;28;45523;-71
2022/03/10 05:17:53;;;;;;;;;43.00;31.00;;;;;7.19;64.73;101833.84;5012703;28;45398;-71
2022/03/10 05:20:19;;;;;;;;;39.50;36.00;;;;;7.17;65.04;101835.63;5011969;28;45385;-71
2022/03/10 05:22:47;;;;;;;;;34.25;31.75;;;;;7.14;64.52;101841.75;5015967;28;45341;-72
2022/03/10 05:25:14;;;;;;;;;36.25;29.50;;;;;7.13;64.80;101839.16;5016619;28;45311;-71
2022/03/10 05:27:39;;;;;;;;;39.00;31.00;;;;;7.10;64.86;101839.19;5012766;28;45493;-71
2022/03/10 05:30:05;;;;;;;;;39.75;33.00;;;;;7.09;64.89;101840.06;5016161;28;46704;-71
2022/03/10 05:32:32;;;;;;;;;38.75;32.25;;;;;7.07;65.01;101834.88;5011274;28;46468;-71
2022/03/10 05:34:57;;;;;;;;;38.25;32.50;;;;;7.07;65.06;101837.47;5012213;28;45446;-71
2022/03/10 05:37:24;;;;;;;;;31.00;29.67;;;;;7.05;64.74;101842.75;5016149;28;45460;-71
2022/03/10 05:39:50;;;;;;;;;32.50;27.00;;;;;7.05;65.23;101841.88;5016432;28;47260;-71
2022/03/10 05:42:15;;;;;;;;;31.25;25.00;;;;;7.03;64.94;101841.88;5011975;28;45456;-71
2022/03/10 05:44:40;;;;;;;;;42.67;28.33;;;;;7.02;64.74;101841.88;5015965;28;45735;-71
2022/03/10 05:47:06;;;;;;;;;30.33;25.00;;;;;7.01;64.99;101845.41;5015240;28;47031;-71
2022/03/10 05:49:32;;;;;;;;;39.25;33.00;;;;;6.99;65.18;101848.00;5013933;28;47046;-71
2022/03/10 05:51:57;;;;;;;;;28.00;22.75;;;;;6.99;65.33;101844.53;5013960;28;46157;-71
2022/03/10 05:54:23;;;;;;;;;34.75;28.00;;;;;6.97;64.70;101839.31;5015906;28;45460;-71
2022/03/10 05:56:48;;;;;;;;;34.00;27.67;;;;;6.98;65.18;101846.28;5012014;28;45371;-71
2022/03/10 05:59:13;;;;;;;;;29.25;23.50;;;;;7.04;65.16;101840.13;5011305;28;46043;-71
2022/03/10 06:01:39;;;;;;;;;35.00;28.00;;;;;7.07;64.83;101840.09;5015788;28;45420;-71
2022/03/10 06:04:04;;;;;;;;;32.50;26.75;;;;;7.10;65.16;101845.31;5016276;28;45364;-71
2022/03/10 06:06:30;;;;;;;;;34.25;27.00;;;;;7.13;65.19;101852.22;5012705;28;45494;-71
2022/03/10 06:08:55;;;;;;;;;32.25;28.75;;;;;7.14;64.74;101849.59;5015061;28;46353;-71
2022/03/10 06:11:20;;;;;;;;;35.00;23.50;;;;;7.14;64.88;101844.34;5011413;28;45405;-71
2022/03/10 06:13:46;;;;;;;;;34.33;27.00;;;;;7.16;64.72;101846.97;5012326;28;45304;-71
2022/03/10 06:16:11;;;;;;;;;37.50;26.75;;;;;7.16;65.06;101849.59;4998035;28;45486;-71
2022/03/10 06:18:36;;;;;;;;;32.00;28.00;;;;;7.16;65.12;101855.69;5016181;28;46146;-71
2022/03/10 06:21:02;;;;;;;;;34.25;25.25;;;;;7.15;65.09;101853.97;5013015;28;45551;-71
2022/03/10 06:23:27;;;;;;;;;33.00;27.50;;;;;7.14;64.70;101846.97;5014959;28;45598;-71
2022/03/10 06:25:53;;;;;;;;;33.50;29.50;;;;;7.16;65.07;101857.44;5011074;28;45290;-71
2022/03/10 06:28:18;;;;;;;;;34.50;27.25;;;;;7.15;65.36;101855.69;5015401;28;46098;-71
2022/03/10 06:30:44;;;;;;;;;34.75;29.75;;;;;7.15;65.49;101853.06;4994567;28;45625;-71
2022/03/10 06:33:09;;;;;;;;;39.50;30.00;;;;;7.16;65.24;101862.66;5010895;28;45501;-71
2022/03/10 06:35:34;;;;;;;;;47.33;33.00;;;;;7.17;66.64;101862.63;5015476;28;45404;-71
2022/03/10 06:38:00;;;;;;;;;32.00;27.75;;;;;7.19;66.62;101865.22;5010757;28;45424;-71
2022/03/10 06:40:26;;;;;;;;;35.00;31.50;;;;;7.21;66.05;101864.34;5013725;28;45330;-71
2022/03/10 06:42:51;;;;;;;;;38.00;28.25;;;;;7.23;65.74;101866.94;5012919;28;45365;-71
2022/03/10 06:45:16;;;;;;;;;43.50;32.75;;;;;7.27;65.53;101863.41;5014872;28;45450;-71
2022/03/10 06:47:42;;;;;;;;;29.33;28.33;;;;;7.29;65.69;101861.63;4992766;28;47586;-71
2022/03/10 06:50:07;;;;;;;;;36.25;32.00;;;;;7.35;65.49;101860.69;4996698;28;46273;-71
2022/03/10 06:52:33;;;;;;;;;32.00;29.50;;;;;7.40;65.72;101859.75;5013239;28;45439;-71
2022/03/10 06:54:58;;;;;;;;;37.00;26.00;;;;;7.47;65.31;101860.56;5012361;28;45523;-71
2022/03/10 06:57:24;;;;;;;;;44.00;34.67;;;;;7.53;65.13;101861.34;5015008;28;49464;-71
2022/03/10 06:59:49;;;;;;;;;41.25;34.00;;;;;7.60;65.76;101862.13;5010522;28;45736;-71
2022/03/10 07:02:16;;;;;;;;;41.75;34.00;;;;;7.68;65.41;101860.28;4996067;28;47575;-71
2022/03/10 07:04:42;;;;;;;;;31.00;30.50;;;;;7.78;65.49;101861.03;5014476;28;45485;-72
2022/03/10 07:07:07;;;;;;;;;38.50;32.50;;;;;7.85;65.37;101870.53;5014923;28;46120;-71
2022/03/10 07:09:33;;;;;;;;;40.50;33.25;;;;;7.94;64.77;101865.19;5011583;28;45625;-72
2022/03/10 07:11:58;;;;;;;;;36.33;30.33;;;;;8.03;65.11;101872.00;5012700;28;45362;-72
2022/03/10 07:14:24;;;;;;;;;39.00;33.25;;;;;8.14;65.11;101874.47;5010208;28;45460;-71
2022/03/10 07:16:49;;;;;;;;;32.75;26.50;;;;;8.29;64.44;101879.50;5013157;28;45895;-72
2022/03/10 07:19:15;;;;;;;;;33.33;27.33;;;;;8.44;64.38;101879.28;5010478;28;45516;-71
2022/03/10 07:21:40;;;;;;;;;29.25;27.50;;;;;8.59;64.35;101883.41;5012456;28;45590;-70
2022/03/10 07:24:06;;;;;;;;;32.00;27.75;;;;;8.80;64.16;101887.44;5009901;28;45582;-70
2022/03/10 07:26:32;;;;;;;;;34.25;28.25;;;;;9.34;63.65;101890.84;5010034;28;46247;-68
2022/03/10 07:29:00;;;;;;;;;22.50;16.25;;;;;10.19;62.96;101882.03;5013793;28;45518;-68
2022/03/10 07:31:27;;;;;;;;;32.25;27.00;;;;;11.21;61.53;101878.59;5014154;28;45384;-72
2022/03/10 07:33:52;;;;;;;;;37.75;28.25;;;;;11.95;60.28;101878.25;5014668;28;45404;-71
2022/03/10 07:36:18;;;;;;;;;35.00;28.67;;;;;12.44;58.25;101889.03;5006827;28;64621;-71
2022/03/10 07:38:43;;;;;;;;;32.75;27.50;;;;;12.97;57.91;101884.59;5011708;28;45436;-72
2022/03/10 07:41:09;;;;;;;;;34.50;30.25;;;;;13.13;56.19;101881.41;5014046;28;45849;-72
2022/03/10 07:43:34;;;;;;;;;34.50;23.75;;;;;13.35;56.04;101884.19;5011806;28;45266;-72
2022/03/10 07:46:00;;;;;;;;;37.25;28.50;;;;;13.91;55.35;101886.50;5011519;28;49628;-71
2022/03/10 07:48:26;;;;;;;;;28.00;21.25;;;;;14.92;55.42;101877.13;5012302;28;45828;-72
2022/03/10 07:50:52;;;;;;;;;31.25;29.00;;;;;16.60;54.32;101878.16;5010340;28;45689;-72
2022/03/10 07:53:19;;;;;;;;;33.00;29.25;;;;;18.37;52.72;101867.75;5010143;28;45399;-72
2022/03/10 07:55:45;;;;;;;;;30.00;26.00;;;;;19.80;49.51;101876.06;5002572;28;46292;-72
2022/03/10 07:58:11;;;;;;;;;34.00;30.00;;;;;20.72;47.29;101875.38;5014275;28;45941;-72
2022/03/10 08:00:36;;;;;;;;;35.50;29.25;;;;;20.97;45.07;101878.09;5012084;28;45292;-72
2022/03/10 08:03:02;;;;;;;;;31.25;27.00;;;;;20.91;44.67;101880.34;5013632;28;45601;-72
2022/03/10 08:05:27;;;;;;;;;31.50;27.50;;;;;21.57;44.56;101881.97;5009272;28;47050;-72
2022/03/10 08:07:52;;;;;;;;;28.50;25.00;;;;;22.70;42.68;101868.28;5009035;28;45511;-73
2022/03/10 08:10:18;;;;;;;;;34.25;29.50;;;;;24.14;42.38;101873.03;5013674;28;45560;-72
2022/03/10 08:12:43;;;;;;;;;31.50;27.25;;;;;25.28;39.98;101875.94;5010115;28;45358;-71
2022/03/10 08:15:08;;;;;;;;;29.25;26.50;;;;;26.09;38.39;101867.88;5013317;28;46170;-71
2022/03/10 08:17:34;;;;;;;;;33.50;26.50;;;;;26.82;38.92;101869.19;5010001;28;45520;-72
2022/03/10 08:19:59;;;;;;;;;25.00;25.00;;;;;27.66;35.87;101866.50;5013801;28;45440;-71
2022/03/10 08:22:24;;;;;;;;;30.00;24.75;;;;;28.53;35.31;101867.84;5012936;28;54909;-71
2022/03/10 08:24:50;;;;;;;;;26.50;24.25;;;;;29.35;34.28;101866.56;5012453;28;46293;-70
2022/03/10 08:27:16;;;;;;;;;30.00;24.75;;;;;30.18;33.29;101865.91;5008813;28;45567;-71
2022/03/10 08:29:42;;;;;;;;;34.00;28.75;;;;;31.02;32.14;101868.31;4995111;28;45703;-71
2022/03/10 08:32:08;;;;;;;;;28.75;25.75;;;;;31.72;30.35;101862.13;5009417;28;45690;-71
2022/03/10 08:34:35;;;;;;;;;28.00;23.75;;;;;31.98;29.85;101869.16;5010963;28;46358;-71
2022/03/10 08:37:00;;;;;;;;;29.25;26.75;;;;;32.63;29.87;101866.84;5010951;28;45984;-72
2022/03/10 08:39:26;;;;;;;;;23.75;19.75;;;;;33.54;28.36;101864.06;5012067;28;45485;-72
2022/03/10 08:41:51;;;;;;;;;34.75;31.50;;;;;34.14;27.76;101857.44;5009346;28;45490;-71
2022/03/10 08:44:17;;;;;;;;;26.00;22.50;;;;;34.48;27.73;101862.22;5010448;28;46884;-72
2022/03/10 08:46:43;;;;;;;;;30.50;27.00;;;;;34.87;25.93;101858.94;5012485;28;45413;-72
2022/03/10 08:49:08;;;;;;;;;28.75;27.25;;;;;35.13;25.82;101855.56;5012492;28;45215;-72
2022/03/10 08:51:33;;;;;;;;;28.50;23.25;;;;;35.85;25.05;101858.88;5013718;28;45400;-72
2022/03/10 08:53:59;;;;;;;;;31.00;26.75;;;;;36.26;24.91;101850.56;5014688;28;45788;-72
2022/03/10 08:56:24;;;;;;;;;24.00;23.00;;;;;36.50;24.65;101850.00;5014573;28;45496;-72
2022/03/10 08:58:49;;;;;;;;;24.50;24.50;;;;;36.92;23.91;101850.63;5014024;28;45478;-72
2022/03/10 09:01:15;;;;;;;;;24.25;20.75;;;;;37.20;23.62;101847.59;5014749;28;45415;-72
2022/03/10 09:03:40;;;;;;;;;24.25;24.25;;;;;37.69;23.33;101845.31;5013250;28;45282;-72
2022/03/10 09:06:07;;;;;;;;;26.50;26.00;;;;;38.15;22.68;101849.72;5014625;28;45523;-72
2022/03/10 09:08:33;;;;;;;;;24.50;23.00;;;;;38.36;21.72;101843.88;5015209;28;45489;-72
2022/03/10 09:10:59;;;;;;;;;30.25;25.00;;;;;38.51;22.72;101844.38;5015946;28;45507;-72
2022/03/10 09:13:25;;;;;;;;;23.75;21.75;;;;;38.80;21.23;101844.81;5014691;28;45504;-72
2022/03/10 09:15:50;;;;;;;;;20.75;19.50;;;;;39.09;21.18;101849.53;5013895;28;45461;-72
2022/03/10 09:18:15;;;;;;;;;26.75;23.50;;;;;39.73;20.53;101849.22;5015278;28;45497;-72
2022/03/10 09:20:41;;;;;;;;;29.00;24.50;;;;;40.42;20.16;101847.78;5014001;28;45394;-72
2022/03/10 09:23:07;;;;;;;;;24.75;22.75;;;;;40.65;20.11;101842.31;5013790;28;45491;-72
2022/03/10 09:25:32;;;;;;;;;30.75;27.75;;;;;41.03;20.07;101843.75;5012765;28;45468;-73
2022/03/10 09:27:57;;;;;;;;;23.25;21.00;;;;;41.68;19.22;101842.63;5013630;28;45282;-72
2022/03/10 09:30:23;;;;;;;;;27.75;22.25;;;;;42.25;19.43;101847.31;5015115;28;45362;-72
2022/03/10 09:32:48;;;;;;;;;28.75;23.25;;;;;42.72;19.14;101845.06;5008641;28;46931;-72
2022/03/10 09:35:16;;;;;;;;;30.75;27.25;;;;;42.74;18.62;101845.63;5012862;28;45412;-72
2022/03/10 09:37:42;;;;;;;;;24.25;21.75;;;;;42.89;19.10;101845.00;5012827;28;45831;-72
2022/03/10 09:40:09;;;;;;;;;27.75;23.50;;;;;43.07;17.94;101841.97;5014374;28;45281;-72
2022/03/10 09:42:35;;;;;;;;;21.00;17.50;;;;;43.14;17.72;101833.47;5016786;28;46262;-72
2022/03/10 09:45:09;;;;;;;;;19.50;18.50;;;;;43.14;18.05;101839.00;5011719;28;45372;-72
2022/03/10 09:47:38;;;;;;;;;22.50;19.25;;;;;43.01;17.58;101837.44;5015901;28;45519;-72
2022/03/10 09:50:10;;;;;;;;;20.25;20.00;;;;;42.76;17.67;101839.81;5016028;28;45480;-72
2022/03/10 09:52:36;;;;;;;;;21.75;19.00;;;;;42.66;16.90;101837.78;5014468;28;46220;-72
2022/03/10 09:55:04;;;;;;;;;24.75;20.50;;;;;42.44;17.04;101834.91;5015600;28;45729;-72
2022/03/10 09:57:29;;;;;;;;;24.25;22.75;;;;;41.90;17.23;101837.28;5019705;28;45483;-72
2022/03/10 09:59:58;;;;;;;;;22.00;19.75;;;;;41.32;17.44;101832.78;5015367;28;45459;-71
2022/03/10 10:02:25;;;;;;;;;23.25;21.25;;;;;40.47;18.45;101825.88;5015590;28;47445;-73
2022/03/10 10:04:51;;;;;;;;;21.50;20.50;;;;;39.77;18.07;101820.19;5012630;28;45496;-72
2022/03/10 10:07:21;;;;;;;;;19.25;16.75;;;;;38.68;18.21;101828.16;5015469;28;45542;-73
2022/03/10 10:09:53;;;;;;;;;18.50;18.00;;;;;37.45;19.97;101830.47;5010558;28;45762;-73
2022/03/10 10:12:22;;;;;;;;;20.50;18.50;;;;;36.52;19.78;101823.25;5009793;28;47440;-72
2022/03/10 10:14:48;;;;;;;;;21.75;19.50;;;;;35.86;20.28;101822.25;5012845;28;45519;-72
2022/03/10 10:17:14;;;;;;;;;20.75;18.75;;;;;35.16;20.72;101821.56;5011742;28;45419;-72
2022/03/10 10:19:41;;;;;;;;;19.25;15.75;;;;;34.68;20.69;101813.25;5010633;28;45818;-72
2022/03/10 10:22:19;;;;;;;;;19.75;19.75;;;;;34.18;21.07;101815.09;5010483;28;48456;-72
2022/03/10 10:24:53;;;;;;;;;19.00;17.75;;;;;33.86;21.91;101819.13;5009980;28;45442;-74
2022/03/10 10:27:23;;;;;;;;;26.50;21.75;;;;;33.56;22.19;101812.91;5011932;28;45687;-72
2022/03/10 10:30:00;;;;;;;;;19.75;18.00;;;;;33.31;22.17;101807.78;5013066;28;45874;-72
2022/03/10 10:32:35;;;;;;;;;22.75;18.25;;;;;33.29;21.45;101809.81;5010983;28;46945;-72
2022/03/10 10:35:02;;;;;;;;;19.50;17.25;;;;;33.03;21.92;101812.19;5006299;28;45786;-72
2022/03/10 10:37:28;;;;;;;;;22.75;19.50;;;;;32.79;23.09;101796.94;5004205;28;45480;-72
2022/03/10 10:39:58;;;;;;;;;21.25;18.25;;;;;32.52;23.00;101799.22;5012761;28;45459;-72
2022/03/10 10:42:29;;;;;;;;;20.25;17.25;;;;;31.98;23.00;101788.44;5013089;28;47022;-72
2022/03/10 10:44:55;;;;;;;;;17.00;15.00;;;;;31.36;23.16;101793.88;5011800;28;45510;-72
2022/03/10 10:47:20;;;;;;;;;18.00;16.25;;;;;30.62;23.62;101795.91;5012116;28;45647;-72
2022/03/10 10:49:56;;;;;;;;;17.25;16.75;;;;;29.97;24.63;101793.16;5012723;28;45782;-72
2022/03/10 10:52:21;;;;;;;;;14.50;14.00;;;;;29.65;24.78;101781.22;5001561;28;46026;-72
2022/03/10 10:54:46;;;;;;;;;19.00;16.75;;;;;29.17;25.00;101785.41;5012847;28;45455;-71
2022/03/10 10:57:20;;;;;;;;;16.25;15.00;;;;;28.72;25.16;101785.66;5013112;28;47316;-71
2022/03/10 10:59:47;;;;;;;;;15.50;15.50;;;;;28.56;25.93;101784.53;5019183;28;45475;-72
2022/03/10 11:02:18;;;;;;;;;16.00;15.25;;;;;28.41;25.87;101771.75;5023330;28;46182;-72
2022/03/10 11:04:49;;;;;;;;;16.25;13.75;;;;;28.01;26.38;101770.34;5016099;28;45309;-72
2022/03/10 11:07:15;;;;;;;;;14.50;13.75;;;;;27.70;26.77;101775.25;5009325;28;45348;-70
2022/03/10 11:09:45;;;;;;;;;16.00;15.00;;;;;27.46;26.86;101765.88;5015763;28;45646;-68
2022/03/10 11:12:13;;;;;;;;;15.75;14.00;;;;;27.36;26.90;101764.25;5017788;28;46264;-71
2022/03/10 11:14:39;;;;;;;;;15.25;12.75;;;;;27.17;27.48;101757.06;5014588;28;45515;-69